createdAt,value
2022-11-18T00:01:13.950Z,9.63
2022-11-18T00:03:41.921Z,9.66
2022-11-18T00:06:13.006Z,9.73
2022-11-18T00:08:39.876Z,9.76
2022-11-18T00:11:38.635Z,9.75
2022-11-18T00:14:19.356Z,9.58
2022-11-18T00:16:57.955Z,9.55
2022-11-18T00:19:27.531Z,9.41
2022-11-18T00:21:55.028Z,9.48
2022-11-18T00:24:22.561Z,9.27
2022-11-18T00:26:50.125Z,9.31
2022-11-18T00:29:17.778Z,9.18
2022-11-18T00:31:44.981Z,9.25
2022-11-18T00:34:13.811Z,9.24
2022-11-18T00:36:42.841Z,9.19
2022-11-18T00:39:15.393Z,9.25
2022-11-18T00:42:01.190Z,9.24
2022-11-18T00:44:28.671Z,9.38
2022-11-18T00:46:56.331Z,9.01
2022-11-18T00:49:23.554Z,8.98
2022-11-18T00:51:50.737Z,8.93
2022-11-18T00:54:18.127Z,9.02
2022-11-18T00:56:44.994Z,9.01
2022-11-18T00:59:11.813Z,9.14
2022-11-18T01:01:38.820Z,9.18
2022-11-18T01:04:05.763Z,9.19
2022-11-18T01:06:32.812Z,9.31
2022-11-18T01:08:59.639Z,9.16
2022-11-18T01:11:45.003Z,8.90
2022-11-18T01:14:12.076Z,8.75
2022-11-18T01:16:38.895Z,8.66
2022-11-18T01:19:05.837Z,8.35
2022-11-18T01:21:32.826Z,8.45
2022-11-18T01:23:59.754Z,8.36
2022-11-18T01:26:26.736Z,8.34
2022-11-18T01:28:59.910Z,8.35
2022-11-18T01:31:26.856Z,8.36
2022-11-18T01:33:53.635Z,8.39
2022-11-18T01:36:23.876Z,8.34
2022-11-18T01:38:51.562Z,8.38
2022-11-18T01:41:20.431Z,8.43
2022-11-18T01:43:58.414Z,8.53
2022-11-18T01:46:28.299Z,8.72
2022-11-18T01:48:58.207Z,8.68
2022-11-18T01:51:51.476Z,8.55
2022-11-18T01:54:27.815Z,8.62
2022-11-18T01:56:59.624Z,8.54
2022-11-18T01:59:30.866Z,8.35
2022-11-18T02:02:00.818Z,8.02
2022-11-18T02:04:27.875Z,8.08
2022-11-18T02:06:55.348Z,8.11
2022-11-18T02:09:23.219Z,8.17
2022-11-18T02:11:56.718Z,8.11
2022-11-18T02:14:32.236Z,8.19
2022-11-18T02:17:24.007Z,8.30
2022-11-18T02:20:08.864Z,8.30
2022-11-18T02:22:54.063Z,8.13
2022-11-18T02:26:09.034Z,8.15
2022-11-18T02:28:56.510Z,8.07
2022-11-18T02:31:25.960Z,8.06
2022-11-18T02:34:06.617Z,8.11
2022-11-18T02:36:51.823Z,8.22
2022-11-18T02:39:50.661Z,8.21
2022-11-18T02:42:18.454Z,8.13
2022-11-18T02:44:51.597Z,8.04
2022-11-18T02:47:21.821Z,7.82
2022-11-18T02:49:53.883Z,7.80
2022-11-18T02:52:22.650Z,7.71
2022-11-18T02:54:51.319Z,7.70
2022-11-18T02:57:21.116Z,7.75
2022-11-18T02:59:48.559Z,7.68
2022-11-18T03:02:17.578Z,7.91
2022-11-18T03:04:47.680Z,7.79
2022-11-18T03:07:17.398Z,7.90
2022-11-18T03:09:48.629Z,7.86
2022-11-18T03:12:37.283Z,7.86
2022-11-18T03:15:25.076Z,7.83
2022-11-18T03:18:05.578Z,7.75
2022-11-18T03:21:02.767Z,7.63
2022-11-18T03:23:39.193Z,7.72
2022-11-18T03:26:12.649Z,7.74
2022-11-18T03:29:04.624Z,7.54
2022-11-18T03:31:56.135Z,7.37
2022-11-18T03:34:36.303Z,7.34
2022-11-18T03:37:10.666Z,7.29
2022-11-18T03:39:42.700Z,7.22
2022-11-18T03:42:27.708Z,7.04
2022-11-18T03:45:01.912Z,7.04
2022-11-18T03:47:39.471Z,7.01
2022-11-18T03:50:14.423Z,6.84
2022-11-18T03:52:42.959Z,6.84
2022-11-18T03:55:15.593Z,6.87
2022-11-18T03:57:51.778Z,6.95
2022-11-18T04:00:20.595Z,6.96
2022-11-18T04:02:50.493Z,6.86
2022-11-18T04:05:19.414Z,6.86
2022-11-18T04:07:54.243Z,6.94
2022-11-18T04:10:26.654Z,6.84
2022-11-18T04:13:24.359Z,7.05
2022-11-18T04:15:51.572Z,6.92
2022-11-18T04:18:18.382Z,7.11
2022-11-18T04:20:45.206Z,7.16
2022-11-18T04:23:12.437Z,7.23
2022-11-18T04:25:39.687Z,7.27
2022-11-18T04:28:07.145Z,7.29
2022-11-18T04:30:34.304Z,7.42
2022-11-18T04:33:01.366Z,7.42
2022-11-18T04:35:28.240Z,7.51
2022-11-18T04:37:55.372Z,7.64
2022-11-18T04:40:22.406Z,7.55
2022-11-18T04:42:49.375Z,7.38
2022-11-18T04:45:16.841Z,7.49
2022-11-18T04:47:43.686Z,7.45
2022-11-18T04:50:10.521Z,7.47
2022-11-18T04:52:37.483Z,7.55
2022-11-18T04:55:04.743Z,7.59
2022-11-18T04:57:31.541Z,7.61
2022-11-18T04:59:58.391Z,7.50
2022-11-18T05:02:25.428Z,7.45
2022-11-18T05:04:52.338Z,7.48
2022-11-18T05:07:19.418Z,7.60
2022-11-18T05:09:46.329Z,7.40
2022-11-18T05:12:33.468Z,7.17
2022-11-18T05:15:01.123Z,6.86
2022-11-18T05:17:30.018Z,6.83
2022-11-18T05:19:56.921Z,6.97
2022-11-18T05:22:23.813Z,6.86
2022-11-18T05:24:50.658Z,6.99
2022-11-18T05:27:17.595Z,7.01
2022-11-18T05:29:44.814Z,6.88
2022-11-18T05:32:12.344Z,6.76
2022-11-18T05:34:41.076Z,6.82
2022-11-18T05:37:08.122Z,6.52
2022-11-18T05:39:36.190Z,6.48
2022-11-18T05:42:21.905Z,6.53
2022-11-18T05:44:57.549Z,6.76
2022-11-18T05:47:25.541Z,6.87
2022-11-18T05:49:52.370Z,6.89
2022-11-18T05:52:19.230Z,7.01
2022-11-18T05:54:50.327Z,6.91
2022-11-18T05:57:17.192Z,6.87
2022-11-18T05:59:44.041Z,6.67
2022-11-18T06:02:24.455Z,6.55
2022-11-18T06:04:58.286Z,6.37
2022-11-18T06:07:34.905Z,6.30
2022-11-18T06:10:05.757Z,6.61
2022-11-18T06:12:42.041Z,6.76
2022-11-18T06:15:23.256Z,7.07
2022-11-18T06:17:57.384Z,7.22
2022-11-18T06:20:24.583Z,7.37
2022-11-18T06:22:55.086Z,7.39
2022-11-18T06:25:22.597Z,7.40
2022-11-18T06:27:52.013Z,7.17
2022-11-18T06:30:18.874Z,7.42
2022-11-18T06:32:46.499Z,7.53
2022-11-18T06:35:13.477Z,7.74
2022-11-18T06:37:40.422Z,7.84
2022-11-18T06:40:07.976Z,7.80
2022-11-18T06:42:54.999Z,7.90
2022-11-18T06:45:22.012Z,7.93
2022-11-18T06:47:49.424Z,7.93
2022-11-18T06:50:16.672Z,8.06
2022-11-18T06:52:43.853Z,8.03
2022-11-18T06:55:10.804Z,8.02
2022-11-18T06:57:39.884Z,8.12
2022-11-18T07:00:07.737Z,8.27
2022-11-18T07:02:37.948Z,8.65
2022-11-18T07:05:06.571Z,8.99
2022-11-18T07:07:41.797Z,9.24
2022-11-18T07:10:09.493Z,9.54
2022-11-18T07:12:36.580Z,9.77
2022-11-18T07:15:03.934Z,9.94
2022-11-18T07:17:31.837Z,9.90
2022-11-18T07:19:59.147Z,9.88
2022-11-18T07:22:26.078Z,10.07
2022-11-18T07:24:53.029Z,10.23
2022-11-18T07:27:19.912Z,10.38
2022-11-18T07:30:23.634Z,10.54
2022-11-18T07:32:50.610Z,10.64
2022-11-18T07:35:19.622Z,10.54
2022-11-18T07:37:46.701Z,10.87
2022-11-18T07:40:13.494Z,10.99
2022-11-18T07:42:43.139Z,10.91
2022-11-18T07:45:23.905Z,10.92
2022-11-18T07:47:51.999Z,11.02
2022-11-18T07:50:19.860Z,11.10
2022-11-18T07:52:46.668Z,11.00
2022-11-18T07:55:13.757Z,11.03
2022-11-18T07:57:42.812Z,11.29
2022-11-18T08:00:12.833Z,11.45
2022-11-18T08:02:39.963Z,11.60
2022-11-18T08:05:11.074Z,11.68
2022-11-18T08:07:43.045Z,11.80
2022-11-18T08:10:10.247Z,12.02
2022-11-18T08:12:37.418Z,12.01
2022-11-18T08:15:04.610Z,12.14
2022-11-18T08:17:32.706Z,12.27
2022-11-18T08:19:59.686Z,12.39
2022-11-18T08:22:27.072Z,12.59
2022-11-18T08:24:54.216Z,12.60
2022-11-18T08:27:21.452Z,12.56
2022-11-18T08:29:48.528Z,12.53
2022-11-18T08:32:15.665Z,12.71
2022-11-18T08:34:42.574Z,12.93
2022-11-18T08:37:11.636Z,12.95
2022-11-18T08:39:39.234Z,13.16
2022-11-18T08:42:13.993Z,13.21
2022-11-18T08:44:41.301Z,13.25
2022-11-18T08:47:09.394Z,13.28
2022-11-18T08:49:36.321Z,13.27
2022-11-18T08:52:04.134Z,13.43
2022-11-18T08:54:41.550Z,13.43
2022-11-18T08:57:09.702Z,13.51
2022-11-18T08:59:39.121Z,13.67
2022-11-18T09:02:07.345Z,13.71
2022-11-18T09:04:34.696Z,13.72
2022-11-18T09:07:02.415Z,13.85
2022-11-18T09:09:30.629Z,13.93
2022-11-18T09:11:58.110Z,13.95
2022-11-18T09:15:12.269Z,14.04
2022-11-18T09:20:11.139Z,14.07
2022-11-18T09:22:39.734Z,14.26
2022-11-18T09:25:08.126Z,14.23
2022-11-18T09:27:35.416Z,14.22
2022-11-18T09:30:04.544Z,14.37
2022-11-18T09:32:34.585Z,14.25
2022-11-18T09:35:05.879Z,14.48
2022-11-18T09:37:40.390Z,14.53
2022-11-18T09:40:19.742Z,14.65
2022-11-18T09:43:19.440Z,14.82
2022-11-18T09:46:15.498Z,14.71
2022-11-18T09:49:09.003Z,14.78
2022-11-18T09:51:41.673Z,14.24
2022-11-18T09:54:26.358Z,14.35
2022-11-18T09:56:55.728Z,14.63
2022-11-18T09:59:27.936Z,14.65
2022-11-18T10:02:55.583Z,14.69
2022-11-18T10:05:54.561Z,14.60
2022-11-18T10:08:30.743Z,14.72
2022-11-18T10:12:04.544Z,14.55
2022-11-18T10:14:56.267Z,14.76
2022-11-18T10:17:58.515Z,14.84
2022-11-18T10:20:39.328Z,14.80
2022-11-18T10:23:28.981Z,14.94
2022-11-18T10:25:57.208Z,14.90
2022-11-18T10:28:29.855Z,15.16
2022-11-18T10:31:09.274Z,15.02
2022-11-18T10:33:37.287Z,15.09
2022-11-18T10:36:28.452Z,15.11
2022-11-18T10:39:14.215Z,15.26
2022-11-18T10:41:49.117Z,15.33
2022-11-18T10:44:37.178Z,15.54
2022-11-18T10:47:31.615Z,15.48
2022-11-18T10:50:23.223Z,15.59
2022-11-18T10:52:53.882Z,15.51
2022-11-18T10:55:25.259Z,15.35
2022-11-18T10:58:09.943Z,15.62
2022-11-18T11:00:49.444Z,15.78
2022-11-18T11:03:22.767Z,15.56
2022-11-18T11:06:20.306Z,15.73
2022-11-18T11:09:06.519Z,15.71
2022-11-18T11:11:46.601Z,15.61
2022-11-18T11:14:52.381Z,15.91
2022-11-18T11:17:45.580Z,15.98
2022-11-18T11:20:24.588Z,16.09
2022-11-18T11:22:53.216Z,16.14
2022-11-18T11:28:45.792Z,15.99
2022-11-18T11:31:43.585Z,16.17
2022-11-18T11:34:24.254Z,16.12
2022-11-18T11:37:04.583Z,16.25
2022-11-18T11:39:54.415Z,16.26
2022-11-18T11:42:56.988Z,16.22
2022-11-18T11:45:40.623Z,16.19
2022-11-18T11:48:27.514Z,16.16
2022-11-18T11:51:18.199Z,16.35
2022-11-18T11:53:45.977Z,16.37
2022-11-18T11:56:33.532Z,16.47
2022-11-18T11:59:30.881Z,16.16
2022-11-18T12:02:22.331Z,16.35
2022-11-18T12:04:59.228Z,16.34
2022-11-18T12:07:33.646Z,16.36
2022-11-18T12:10:30.438Z,16.54
2022-11-18T12:13:18.995Z,16.35
2022-11-18T12:16:23.247Z,16.31
2022-11-18T12:19:09.435Z,16.14
2022-11-18T12:21:42.714Z,16.16
2022-11-18T12:24:27.563Z,16.34
2022-11-18T12:26:54.596Z,16.57
2022-11-18T12:29:21.555Z,16.55
2022-11-18T12:31:57.860Z,16.49
2022-11-18T12:34:33.351Z,16.58
2022-11-18T12:37:26.142Z,16.69
2022-11-18T12:40:00.653Z,16.40
2022-11-18T12:43:06.903Z,16.51
2022-11-18T12:45:45.965Z,16.44
2022-11-18T12:48:33.189Z,16.53
2022-11-18T12:51:24.617Z,16.62
2022-11-18T12:53:52.861Z,16.57
2022-11-18T12:56:24.434Z,16.65
2022-11-18T12:58:54.347Z,16.56
2022-11-18T13:01:26.465Z,16.73
2022-11-18T13:04:12.449Z,16.63
2022-11-18T13:06:40.453Z,16.81
2022-11-18T13:09:17.818Z,16.89
2022-11-18T13:11:54.251Z,17.08
2022-11-18T13:14:46.025Z,17.10
2022-11-18T13:17:54.325Z,17.13
2022-11-18T13:20:34.129Z,17.01
2022-11-18T13:23:42.663Z,16.82
2022-11-18T13:26:30.106Z,16.78
2022-11-18T13:29:29.331Z,16.72
2022-11-18T13:32:17.420Z,16.63
2022-11-18T13:34:51.127Z,16.72
2022-11-18T13:37:31.195Z,16.57
2022-11-18T13:39:58.499Z,16.73
2022-11-18T13:42:29.254Z,16.71
2022-11-18T13:45:04.098Z,16.73
2022-11-18T13:47:49.261Z,16.59
2022-11-18T13:50:18.532Z,16.50
2022-11-18T13:53:02.353Z,16.53
2022-11-18T13:55:34.576Z,16.37
2022-11-18T13:58:05.443Z,16.20
2022-11-18T14:00:35.983Z,16.24
2022-11-18T14:03:25.139Z,16.18
2022-11-18T14:05:56.426Z,16.01
2022-11-18T14:08:36.437Z,16.05
2022-11-18T14:11:04.819Z,16.10
2022-11-18T14:13:35.992Z,16.07
2022-11-18T14:16:25.469Z,16.12
2022-11-18T14:18:53.061Z,16.17
2022-11-18T14:21:29.993Z,15.98
2022-11-18T14:23:58.195Z,16.03
2022-11-18T14:26:36.401Z,15.99
2022-11-18T14:29:21.040Z,16.03
2022-11-18T14:32:16.443Z,15.97
2022-11-18T14:34:43.357Z,15.87
2022-11-18T14:37:12.825Z,15.88
2022-11-18T14:39:41.120Z,15.82
2022-11-18T14:42:13.293Z,15.76
2022-11-18T14:48:02.106Z,15.71
2022-11-18T14:50:29.015Z,15.69
2022-11-18T14:52:55.943Z,15.68
2022-11-18T14:55:23.202Z,15.65
2022-11-18T14:57:50.025Z,15.41
2022-11-18T15:00:17.585Z,15.42
2022-11-18T15:02:44.548Z,15.46
2022-11-18T15:05:15.539Z,15.38
2022-11-18T15:11:10.100Z,15.31
2022-11-18T15:13:37.725Z,15.20
2022-11-18T15:16:19.922Z,15.26
2022-11-18T15:18:50.298Z,15.11
2022-11-18T15:21:17.601Z,15.21
2022-11-18T15:23:44.986Z,15.14
2022-11-18T15:26:36.300Z,15.25
2022-11-18T15:29:04.491Z,15.06
2022-11-18T15:31:31.686Z,15.16
2022-11-18T15:34:03.481Z,15.05
2022-11-18T15:36:33.629Z,15.09
2022-11-18T15:39:01.538Z,14.93
2022-11-18T15:41:30.592Z,14.96
2022-11-18T15:44:00.126Z,14.92
2022-11-18T15:46:28.241Z,15.12
2022-11-18T15:48:56.331Z,15.12
2022-11-18T15:51:24.627Z,15.15
2022-11-18T15:53:51.533Z,15.19
2022-11-18T15:56:21.407Z,15.20
2022-11-18T15:58:59.958Z,15.23
2022-11-18T16:01:30.621Z,15.12
2022-11-18T16:04:00.439Z,15.06
2022-11-18T16:06:27.488Z,15.02
2022-11-18T16:08:59.596Z,15.18
2022-11-18T16:11:49.362Z,15.13
2022-11-18T16:14:19.267Z,14.95
2022-11-18T16:16:47.984Z,15.00
2022-11-18T16:19:17.908Z,14.95
2022-11-18T16:21:48.364Z,14.87
2022-11-18T16:24:25.677Z,14.83
2022-11-18T16:26:53.573Z,14.90
2022-11-18T16:29:21.295Z,14.83
2022-11-18T16:31:54.125Z,14.84
2022-11-18T16:34:26.279Z,14.71
2022-11-18T16:36:58.796Z,14.56
2022-11-18T16:39:29.664Z,14.60
2022-11-18T16:42:06.746Z,14.76
2022-11-18T16:44:35.011Z,14.54
2022-11-18T16:47:10.523Z,14.53
2022-11-18T16:49:41.269Z,14.50
2022-11-18T16:55:29.872Z,14.64
2022-11-18T16:57:56.725Z,14.57
2022-11-18T17:00:42.966Z,14.65
2022-11-18T17:03:10.955Z,14.57
2022-11-18T17:05:37.878Z,14.49
2022-11-18T17:08:07.960Z,14.30
2022-11-18T17:10:35.039Z,14.56
2022-11-18T17:13:01.958Z,14.48
2022-11-18T17:15:28.948Z,14.51
2022-11-18T17:17:55.766Z,14.59
2022-11-18T17:20:22.584Z,14.56
2022-11-18T17:22:53.132Z,14.52
2022-11-18T17:25:19.937Z,14.56
2022-11-18T17:27:46.767Z,14.41
2022-11-18T17:30:14.446Z,14.33
2022-11-18T17:32:41.291Z,14.26
2022-11-18T17:35:08.955Z,14.18
2022-11-18T17:37:35.912Z,14.21
2022-11-18T17:40:02.931Z,14.39
2022-11-18T17:42:30.772Z,14.38
2022-11-18T17:44:57.653Z,14.39
2022-11-18T17:47:24.680Z,14.34
2022-11-18T17:49:51.815Z,14.53
2022-11-18T17:52:20.027Z,14.57
2022-11-18T17:54:47.839Z,14.62
2022-11-18T17:57:14.736Z,14.63
2022-11-18T17:59:41.720Z,14.68
2022-11-18T18:02:12.178Z,14.59
2022-11-18T18:04:39.320Z,14.59
2022-11-18T18:07:06.478Z,14.67
2022-11-18T18:09:33.385Z,14.37
2022-11-18T18:12:01.024Z,14.27
2022-11-18T18:14:28.558Z,14.21
2022-11-18T18:16:55.596Z,14.40
2022-11-18T18:19:23.383Z,14.15
2022-11-18T18:21:53.525Z,14.09
2022-11-18T18:24:21.110Z,14.04
2022-11-18T18:26:49.095Z,14.26
2022-11-18T18:29:16.343Z,14.17
2022-11-18T18:31:43.717Z,14.14
2022-11-18T18:34:12.048Z,14.17
2022-11-18T18:36:38.957Z,14.16
2022-11-18T18:39:05.955Z,14.37
2022-11-18T18:41:32.974Z,14.44
2022-11-18T18:44:00.984Z,14.46
2022-11-18T18:46:29.230Z,14.42
2022-11-18T18:49:06.428Z,14.37
2022-11-18T18:51:41.363Z,14.30
2022-11-18T18:54:11.676Z,14.28
2022-11-18T18:56:39.471Z,14.24
2022-11-18T18:59:07.273Z,14.24
2022-11-18T19:01:34.433Z,14.00
2022-11-18T19:04:04.604Z,14.09
2022-11-18T19:06:56.700Z,13.97
2022-11-18T19:09:21.371Z,13.87
2022-11-18T19:12:07.455Z,13.99
2022-11-18T19:14:35.441Z,14.10
2022-11-18T19:17:09.667Z,13.97
2022-11-18T19:19:57.530Z,13.94
2022-11-18T19:22:25.120Z,13.91
2022-11-18T19:24:53.850Z,13.81
2022-11-18T19:27:21.285Z,13.58
2022-11-18T19:29:48.363Z,13.58
2022-11-18T19:32:15.963Z,13.37
2022-11-18T19:34:43.403Z,13.27
2022-11-18T19:37:10.365Z,13.34
2022-11-18T19:39:38.700Z,13.51
2022-11-18T19:42:06.216Z,13.52
2022-11-18T19:44:33.199Z,13.63
2022-11-18T19:47:00.247Z,13.69
2022-11-18T19:49:27.214Z,13.76
2022-11-18T19:51:54.151Z,13.60
2022-11-18T19:54:21.095Z,13.37
2022-11-18T19:56:48.003Z,13.42
2022-11-18T19:59:14.941Z,13.37
2022-11-18T20:01:41.959Z,13.52
2022-11-18T20:04:09.437Z,13.31
2022-11-18T20:06:38.634Z,13.40
2022-11-18T20:09:08.640Z,13.51
2022-11-18T20:11:36.687Z,13.43
2022-11-18T20:14:03.968Z,13.50
2022-11-18T20:16:31.740Z,13.51
2022-11-18T20:19:08.016Z,13.55
2022-11-18T20:21:39.286Z,13.50
2022-11-18T20:24:08.102Z,13.54
2022-11-18T20:26:39.411Z,13.53
2022-11-18T20:29:07.860Z,13.25
2022-11-18T20:31:35.765Z,13.20
2022-11-18T20:34:03.749Z,13.01
2022-11-18T20:36:33.378Z,12.96
2022-11-18T20:39:03.440Z,12.93
2022-11-18T20:41:31.785Z,12.97
2022-11-18T20:44:00.395Z,12.90
2022-11-18T20:46:27.478Z,13.16
2022-11-18T20:48:54.717Z,13.26
2022-11-18T20:51:24.449Z,13.35
2022-11-18T20:53:54.692Z,13.31
2022-11-18T20:56:24.438Z,13.19
2022-11-18T20:58:51.575Z,13.22
2022-11-18T21:01:22.079Z,13.06
2022-11-18T21:03:54.247Z,13.15
2022-11-18T21:06:23.294Z,13.20
2022-11-18T21:08:55.834Z,13.15
2022-11-18T21:11:22.807Z,12.98
2022-11-18T21:14:08.461Z,13.12
2022-11-18T21:16:35.581Z,13.13
2022-11-18T21:19:02.388Z,13.16
2022-11-18T21:21:47.580Z,13.12
2022-11-18T21:24:17.628Z,13.08
2022-11-18T21:26:47.031Z,13.01
2022-11-18T21:29:15.454Z,12.93
2022-11-18T21:31:44.054Z,12.71
2022-11-18T21:34:14.248Z,12.60
2022-11-18T21:36:45.090Z,12.24
2022-11-18T21:39:14.698Z,12.51
2022-11-18T21:41:41.608Z,12.63
2022-11-18T21:44:10.898Z,12.83
2022-11-18T21:46:39.943Z,12.86
2022-11-18T21:49:08.923Z,12.94
2022-11-18T21:51:36.528Z,12.86
2022-11-18T21:54:04.449Z,12.88
2022-11-18T21:56:32.300Z,12.90
2022-11-18T21:59:00.996Z,12.93
2022-11-18T22:01:33.344Z,13.00
2022-11-18T22:04:03.658Z,12.98
2022-11-18T22:06:33.778Z,13.06
2022-11-18T22:09:04.248Z,13.07
2022-11-18T22:11:31.270Z,13.11
2022-11-18T22:13:58.188Z,13.27
2022-11-18T22:16:26.689Z,13.25
2022-11-18T22:19:01.544Z,13.30
2022-11-18T22:21:30.606Z,13.25
2022-11-18T22:23:59.610Z,13.17
2022-11-18T22:26:27.102Z,13.10
2022-11-18T22:28:57.650Z,13.06
2022-11-18T22:31:26.295Z,13.12
2022-11-18T22:33:55.471Z,13.12
2022-11-18T22:36:24.606Z,13.11
2022-11-18T22:38:52.258Z,13.19
2022-11-18T22:41:43.119Z,13.20
2022-11-18T22:44:11.849Z,13.15
2022-11-18T22:46:40.314Z,13.21
2022-11-18T22:49:08.864Z,13.29
2022-11-18T22:51:37.381Z,13.24
2022-11-18T22:54:36.643Z,13.26
2022-11-18T22:56:53.787Z,13.33
2022-11-18T22:59:21.093Z,13.26
2022-11-18T23:01:51.165Z,13.29
2022-11-18T23:04:18.163Z,13.23
2022-11-18T23:06:45.031Z,13.30
2022-11-18T23:09:11.997Z,13.31
2022-11-18T23:11:57.484Z,13.28
2022-11-18T23:14:24.353Z,13.24
2022-11-18T23:16:51.169Z,13.00
2022-11-18T23:19:19.387Z,12.93
2022-11-18T23:21:46.851Z,12.89
2022-11-18T23:24:15.512Z,13.00
2022-11-18T23:26:42.867Z,13.04
2022-11-18T23:29:12.397Z,13.00
2022-11-18T23:31:43.969Z,12.79
2022-11-18T23:34:12.927Z,13.01
2022-11-18T23:36:40.739Z,12.74
2022-11-18T23:39:08.311Z,12.67
2022-11-18T23:41:35.324Z,12.55
2022-11-18T23:44:02.380Z,12.39
2022-11-18T23:46:29.428Z,12.56
2022-11-18T23:48:56.571Z,12.55
2022-11-18T23:51:24.888Z,12.71
2022-11-18T23:53:54.347Z,12.72
2022-11-18T23:56:23.971Z,12.95
2022-11-18T23:58:52.844Z,12.93
